createdAt,value
2019-05-05T00:01:14.715Z,9.20
2019-05-05T00:03:47.662Z,9.10
2019-05-05T00:06:16.707Z,9.10
2019-05-05T00:08:45.766Z,8.90
2019-05-05T00:11:16.218Z,8.90
2019-05-05T00:13:58.224Z,9.00
2019-05-05T00:16:35.088Z,8.80
2019-05-05T00:19:04.921Z,8.70
2019-05-05T00:21:34.380Z,8.70
2019-05-05T00:24:04.624Z,8.90
2019-05-05T00:26:34.905Z,8.70
2019-05-05T00:29:04.470Z,8.80
2019-05-05T00:31:34.865Z,8.80
2019-05-05T00:34:05.113Z,8.80
2019-05-05T00:36:35.242Z,9.20
2019-05-05T00:39:06.493Z,8.90
2019-05-05T00:41:35.164Z,8.90
2019-05-05T00:44:04.771Z,8.70
2019-05-05T00:46:51.801Z,9.00
2019-05-05T00:49:21.062Z,8.70
2019-05-05T00:51:49.754Z,8.60
2019-05-05T00:54:18.443Z,8.50
2019-05-05T00:56:47.123Z,8.40
2019-05-05T00:59:17.387Z,8.20
2019-05-05T01:01:50.346Z,8.30
2019-05-05T01:04:20.660Z,8.50
2019-05-05T01:06:49.414Z,8.40
2019-05-05T01:09:21.468Z,8.20
2019-05-05T01:11:50.163Z,8.40
2019-05-05T01:14:18.839Z,8.30
2019-05-05T01:16:47.518Z,8.00
2019-05-05T01:19:16.216Z,8.00
2019-05-05T01:21:45.406Z,8.00
2019-05-05T01:24:14.499Z,8.00
2019-05-05T01:26:44.646Z,8.10
2019-05-05T01:29:15.044Z,7.90
2019-05-05T01:31:45.175Z,8.00
2019-05-05T01:34:15.962Z,7.80
2019-05-05T01:36:45.963Z,8.00
2019-05-05T01:39:22.039Z,8.10
2019-05-05T01:41:54.193Z,7.90
2019-05-05T01:44:24.551Z,7.70
2019-05-05T01:46:54.946Z,7.80
2019-05-05T01:49:25.254Z,7.80
2019-05-05T01:51:55.283Z,7.90
2019-05-05T01:54:24.996Z,7.60
2019-05-05T01:56:55.470Z,7.70
2019-05-05T01:59:25.040Z,7.70
2019-05-05T02:01:55.057Z,7.60
2019-05-05T02:04:25.032Z,7.70
2019-05-05T02:06:54.973Z,7.80
2019-05-05T02:09:25.023Z,8.00
2019-05-05T02:11:54.843Z,7.90
2019-05-05T02:14:24.665Z,7.60
2019-05-05T02:16:54.699Z,7.60
2019-05-05T02:19:25.011Z,8.10
2019-05-05T02:21:54.932Z,8.10
2019-05-05T02:24:25.116Z,7.80
2019-05-05T02:26:54.686Z,8.10
2019-05-05T02:29:28.771Z,7.80
2019-05-05T02:32:15.883Z,8.00
2019-05-05T02:34:46.683Z,8.20
2019-05-05T02:37:16.085Z,7.90
2019-05-05T02:39:57.227Z,8.20
2019-05-05T02:42:16.591Z,8.20
2019-05-05T02:44:45.796Z,8.20
2019-05-05T02:47:29.524Z,8.50
2019-05-05T02:50:01.132Z,8.40
2019-05-05T02:52:34.693Z,8.40
2019-05-05T02:55:04.185Z,8.40
2019-05-05T02:57:34.549Z,8.60
2019-05-05T03:00:24.753Z,8.50
2019-05-05T03:02:55.339Z,8.40
2019-05-05T03:05:24.922Z,8.80
2019-05-05T03:07:55.421Z,8.70
2019-05-05T03:10:26.144Z,8.70
2019-05-05T03:12:55.823Z,8.70
2019-05-05T03:15:30.285Z,8.50
2019-05-05T03:17:59.163Z,8.60
2019-05-05T03:20:27.881Z,8.60
2019-05-05T03:22:56.559Z,8.50
2019-05-05T03:25:25.571Z,8.60
2019-05-05T03:27:54.421Z,8.60
2019-05-05T03:30:26.121Z,8.70
2019-05-05T03:32:55.975Z,8.60
2019-05-05T03:35:25.084Z,8.90
2019-05-05T03:37:54.539Z,8.90
2019-05-05T03:40:24.815Z,8.70
2019-05-05T03:43:04.406Z,8.90
2019-05-05T03:45:40.547Z,8.90
2019-05-05T03:48:09.234Z,8.90
2019-05-05T03:50:38.378Z,9.00
2019-05-05T03:53:07.426Z,9.10
2019-05-05T03:55:36.513Z,8.80
2019-05-05T03:58:05.512Z,8.70
2019-05-05T04:00:51.711Z,9.00
2019-05-05T04:03:20.431Z,9.00
2019-05-05T04:05:57.175Z,9.10
2019-05-05T04:08:26.078Z,9.10
2019-05-05T04:10:55.168Z,9.00
2019-05-05T04:13:24.803Z,9.00
2019-05-05T04:16:09.977Z,9.20
2019-05-05T04:18:48.862Z,9.10
2019-05-05T04:21:30.403Z,9.10
2019-05-05T04:23:47.955Z,9.20
2019-05-05T04:26:16.615Z,9.20
2019-05-05T04:28:45.426Z,9.30
2019-05-05T04:31:14.127Z,9.10
2019-05-05T04:33:44.457Z,9.00
2019-05-05T04:36:14.440Z,9.10
2019-05-05T04:38:43.940Z,9.00
2019-05-05T04:41:14.057Z,9.00
2019-05-05T04:43:44.179Z,9.20
2019-05-05T04:46:14.040Z,9.10
2019-05-05T04:48:47.507Z,9.00
2019-05-05T04:51:17.875Z,9.30
2019-05-05T04:54:06.380Z,9.10
2019-05-05T04:56:35.388Z,9.20
2019-05-05T04:59:04.733Z,9.20
2019-05-05T05:01:33.938Z,9.00
2019-05-05T05:04:10.006Z,9.00
2019-05-05T05:06:48.783Z,9.40
2019-05-05T05:09:17.442Z,9.10
2019-05-05T05:11:46.151Z,9.20
2019-05-05T05:14:14.820Z,9.20
2019-05-05T05:16:43.747Z,9.00
2019-05-05T05:19:13.816Z,9.20
2019-05-05T05:21:43.908Z,9.20
2019-05-05T05:24:14.641Z,9.40
2019-05-05T05:26:44.187Z,9.20
2019-05-05T05:29:15.065Z,9.30
2019-05-05T05:31:44.262Z,9.40
2019-05-05T05:34:14.814Z,9.30
2019-05-05T05:36:44.303Z,9.40
2019-05-05T05:39:33.584Z,9.30
2019-05-05T05:42:04.546Z,9.40
2019-05-05T05:44:37.399Z,9.40
2019-05-05T05:47:14.064Z,9.40
2019-05-05T05:49:56.632Z,9.40
2019-05-05T05:52:25.323Z,9.50
2019-05-05T05:54:54.002Z,9.40
2019-05-05T05:57:24.069Z,9.30
2019-05-05T05:59:54.751Z,9.00
2019-05-05T06:02:24.193Z,9.20
2019-05-05T06:04:53.927Z,9.30
2019-05-05T06:07:24.540Z,9.20
2019-05-05T06:09:54.180Z,9.10
2019-05-05T06:12:24.579Z,9.30
2019-05-05T06:14:53.788Z,9.30
2019-05-05T06:17:23.794Z,9.00
2019-05-05T06:19:53.488Z,9.00
2019-05-05T06:22:30.947Z,9.20
2019-05-05T06:24:54.077Z,9.20
2019-05-05T06:27:23.586Z,9.40
2019-05-05T06:29:54.266Z,9.40
2019-05-05T06:32:23.803Z,9.20
2019-05-05T06:34:53.505Z,9.40
2019-05-05T06:37:23.781Z,9.50
2019-05-05T06:39:54.560Z,9.40
2019-05-05T06:42:24.822Z,9.20
2019-05-05T06:44:55.103Z,9.10
2019-05-05T06:47:25.179Z,8.90
2019-05-05T06:49:54.246Z,9.00
2019-05-05T06:52:24.853Z,9.10
2019-05-05T06:54:54.262Z,9.40
2019-05-05T06:57:24.016Z,9.30
2019-05-05T06:59:54.371Z,9.20
2019-05-05T07:02:23.781Z,9.40
2019-05-05T07:04:54.518Z,9.20
2019-05-05T07:07:23.619Z,9.30
2019-05-05T07:09:54.306Z,9.40
2019-05-05T07:12:24.174Z,9.60
2019-05-05T07:14:55.043Z,9.40
2019-05-05T07:17:24.511Z,9.60
2019-05-05T07:19:54.334Z,9.40
2019-05-05T07:22:24.457Z,9.30
2019-05-05T07:24:54.225Z,9.30
2019-05-05T07:27:24.356Z,9.50
2019-05-05T07:29:54.128Z,9.40
2019-05-05T07:32:24.564Z,9.60
2019-05-05T07:35:14.575Z,9.60
2019-05-05T07:37:43.729Z,9.70
2019-05-05T07:40:14.181Z,9.40
2019-05-05T07:42:44.064Z,9.30
2019-05-05T07:45:22.153Z,9.40
2019-05-05T07:47:47.356Z,9.60
2019-05-05T07:50:28.659Z,9.60
2019-05-05T07:52:47.783Z,9.70
2019-05-05T07:55:16.568Z,9.60
2019-05-05T07:57:45.436Z,9.80
2019-05-05T08:00:14.804Z,9.80
2019-05-05T08:02:44.018Z,9.90
2019-05-05T08:05:14.126Z,9.80
2019-05-05T08:07:44.676Z,9.90
2019-05-05T08:10:13.781Z,9.90
2019-05-05T08:12:43.640Z,9.90
2019-05-05T08:15:15.006Z,10.00
2019-05-05T08:17:51.483Z,9.90
2019-05-05T08:20:24.565Z,9.90
2019-05-05T08:22:53.718Z,9.80
2019-05-05T08:25:36.160Z,10.00
2019-05-05T08:28:04.933Z,10.00
2019-05-05T08:30:35.177Z,10.20
2019-05-05T08:33:04.608Z,10.50
2019-05-05T08:35:34.443Z,10.30
2019-05-05T08:38:04.590Z,10.40
2019-05-05T08:40:34.559Z,10.60
2019-05-05T08:43:04.638Z,10.50
2019-05-05T08:45:34.907Z,10.50
2019-05-05T08:48:04.933Z,10.70
2019-05-05T08:50:34.802Z,10.70
2019-05-05T08:53:08.086Z,10.70
2019-05-05T08:55:34.929Z,10.90
2019-05-05T08:58:04.576Z,11.20
2019-05-05T09:00:33.959Z,10.80
2019-05-05T09:03:03.837Z,10.90
2019-05-05T09:05:34.328Z,10.90
2019-05-05T09:08:04.514Z,11.00
2019-05-05T09:10:34.267Z,10.90
2019-05-05T09:13:03.899Z,10.80
2019-05-05T09:15:33.691Z,11.00
2019-05-05T09:18:04.924Z,10.80
2019-05-05T09:20:34.759Z,10.80
2019-05-05T09:23:04.280Z,10.20
2019-05-05T09:25:44.648Z,10.10
2019-05-05T09:28:23.938Z,10.10
2019-05-05T09:30:53.651Z,10.00
2019-05-05T09:33:24.784Z,10.30
2019-05-05T09:35:54.124Z,10.40
2019-05-05T09:38:23.914Z,10.20
2019-05-05T09:40:54.445Z,10.60
2019-05-05T09:43:24.040Z,10.70
2019-05-05T09:45:54.551Z,10.80
2019-05-05T09:48:24.317Z,11.10
2019-05-05T09:50:54.040Z,11.40
2019-05-05T09:53:23.795Z,11.30
2019-05-05T09:55:54.755Z,11.30
2019-05-05T09:58:24.230Z,11.40
2019-05-05T10:00:54.776Z,11.70
2019-05-05T10:03:23.910Z,11.70
2019-05-05T10:05:54.093Z,11.50
2019-05-05T10:08:23.653Z,11.70
2019-05-05T10:10:54.585Z,11.80
2019-05-05T10:13:23.152Z,11.70
2019-05-05T10:15:51.843Z,11.60
2019-05-05T10:18:20.550Z,11.40
2019-05-05T10:20:49.253Z,11.40
2019-05-05T10:23:18.189Z,11.30
2019-05-05T10:25:48.499Z,11.40
2019-05-05T10:28:17.179Z,11.30
2019-05-05T10:30:45.980Z,11.20
2019-05-05T10:33:14.665Z,10.90
2019-05-05T10:35:43.850Z,10.70
2019-05-05T10:38:14.273Z,10.50
2019-05-05T10:40:44.638Z,10.70
2019-05-05T10:43:14.814Z,10.80
2019-05-05T10:45:44.213Z,10.70
2019-05-05T10:48:14.364Z,10.70
2019-05-05T10:50:44.465Z,10.50
2019-05-05T10:53:13.799Z,10.60
2019-05-05T10:55:44.971Z,10.40
2019-05-05T10:58:13.800Z,10.60
2019-05-05T11:00:54.354Z,10.70
2019-05-05T11:03:25.170Z,10.70
2019-05-05T11:05:53.966Z,10.60
2019-05-05T11:08:24.136Z,10.90
2019-05-05T11:10:52.959Z,10.70
2019-05-05T11:13:23.989Z,10.60
2019-05-05T11:16:01.502Z,10.70
2019-05-05T11:18:31.107Z,11.00
2019-05-05T11:20:59.816Z,10.90
2019-05-05T11:23:28.548Z,11.10
2019-05-05T11:25:57.415Z,11.10
2019-05-05T11:28:26.236Z,11.40
2019-05-05T11:30:56.147Z,11.00
2019-05-05T11:33:29.234Z,11.00
2019-05-05T11:36:10.738Z,11.30
2019-05-05T11:38:41.491Z,11.30
2019-05-05T11:41:10.974Z,11.40
2019-05-05T11:43:39.683Z,11.50
2019-05-05T11:46:08.579Z,11.60
2019-05-05T11:48:37.697Z,11.50
2019-05-05T11:51:06.385Z,11.90
2019-05-05T11:53:35.065Z,12.00
2019-05-05T11:56:05.578Z,12.20
2019-05-05T11:58:37.006Z,12.20
2019-05-05T12:01:07.254Z,12.20
2019-05-05T15:20:56.080Z,12.80
2019-05-05T15:23:24.747Z,12.60
2019-05-05T15:25:54.099Z,12.50
2019-05-05T15:28:24.471Z,12.40
2019-05-05T15:30:54.539Z,12.50
2019-05-05T15:33:24.337Z,12.60
2019-05-05T15:35:54.163Z,12.70
2019-05-05T15:38:24.405Z,12.70
2019-05-05T15:40:54.724Z,12.70
2019-05-05T15:43:24.317Z,12.70
2019-05-05T15:45:54.024Z,13.10
2019-05-05T15:48:22.941Z,12.90
2019-05-05T15:50:51.644Z,13.00
2019-05-05T15:53:20.429Z,12.90
2019-05-05T15:55:49.097Z,13.00
2019-05-05T15:58:20.776Z,13.20
2019-05-05T16:00:48.416Z,13.10
2019-05-05T16:03:17.417Z,13.40
2019-05-05T16:05:46.182Z,13.20
2019-05-05T16:08:14.867Z,13.10
2019-05-05T16:10:46.343Z,12.70
2019-05-05T16:13:14.072Z,12.80
2019-05-05T16:15:44.342Z,13.10
2019-05-05T16:18:14.916Z,13.10
2019-05-05T16:20:45.177Z,13.40
2019-05-05T16:23:15.503Z,13.50
2019-05-05T16:25:46.344Z,13.50
2019-05-05T16:28:15.008Z,13.50
2019-05-05T16:30:44.506Z,13.40
2019-05-05T16:33:19.619Z,12.90
2019-05-05T16:35:48.326Z,12.90
2019-05-05T16:38:17.132Z,12.80
2019-05-05T16:40:46.113Z,12.60
2019-05-05T16:43:16.614Z,12.40
2019-05-05T16:45:45.633Z,12.60
2019-05-05T16:48:15.876Z,12.50
2019-05-05T16:50:45.974Z,12.50
2019-05-05T16:53:34.394Z,12.60
2019-05-05T16:56:14.444Z,12.40
2019-05-05T16:58:44.996Z,12.50
2019-05-05T17:01:15.156Z,12.50
2019-05-05T17:03:45.826Z,12.30
2019-05-05T17:06:14.819Z,12.30
2019-05-05T17:08:44.376Z,12.40
2019-05-05T17:11:15.091Z,12.60
2019-05-05T17:14:13.782Z,12.50
2019-05-05T17:16:54.453Z,12.50
2019-05-05T17:19:27.783Z,12.60
2019-05-05T17:22:09.735Z,12.30
2019-05-05T17:24:38.926Z,12.30
2019-05-05T17:27:07.849Z,12.60
2019-05-05T17:29:36.885Z,12.40
2019-05-05T17:32:06.765Z,12.60
2019-05-05T17:34:35.498Z,12.60
2019-05-05T17:37:04.385Z,12.60
2019-05-05T17:39:34.873Z,12.40
2019-05-05T17:42:07.782Z,12.60
2019-05-05T17:44:54.261Z,12.50
2019-05-05T17:47:27.257Z,12.30
2019-05-05T17:50:04.189Z,12.10
2019-05-05T17:52:38.361Z,11.90
2019-05-05T17:55:27.488Z,12.00
2019-05-05T17:58:01.495Z,11.80
2019-05-05T18:00:29.096Z,11.90
2019-05-05T18:02:57.872Z,11.70
2019-05-05T18:05:44.823Z,11.80
2019-05-05T18:08:15.564Z,11.90
2019-05-05T18:10:45.938Z,11.80
2019-05-05T18:13:25.394Z,11.80
2019-05-05T18:15:55.752Z,11.80
2019-05-05T18:18:25.514Z,11.70
2019-05-05T18:20:54.386Z,11.90
2019-05-05T18:23:23.476Z,11.70
2019-05-05T18:25:52.430Z,11.70
2019-05-05T18:28:24.574Z,12.00
2019-05-05T18:30:54.017Z,11.90
2019-05-05T18:33:24.642Z,11.80
2019-05-05T18:35:54.060Z,12.00
2019-05-05T18:38:23.606Z,12.00
2019-05-05T18:40:54.050Z,12.20
2019-05-05T18:43:24.379Z,12.10
2019-05-05T18:46:04.567Z,12.10
2019-05-05T18:48:34.539Z,12.00
2019-05-05T18:51:03.920Z,12.40
2019-05-05T18:53:34.202Z,12.20
2019-05-05T18:56:03.877Z,12.00
2019-05-05T18:58:34.152Z,12.00
2019-05-05T19:01:10.805Z,12.10
2019-05-05T19:03:44.191Z,12.20
2019-05-05T19:06:17.104Z,12.10
2019-05-05T19:09:07.363Z,12.20
2019-05-05T19:11:36.097Z,12.30
2019-05-05T19:14:04.800Z,12.20
2019-05-05T19:16:36.168Z,12.00
2019-05-05T19:19:06.212Z,11.80
2019-05-05T19:21:45.648Z,12.10
2019-05-05T19:24:14.533Z,12.30
2019-05-05T19:26:43.354Z,12.40
2019-05-05T19:29:13.547Z,12.50
2019-05-05T19:31:43.849Z,12.30
2019-05-05T19:34:14.555Z,12.50
2019-05-05T19:36:46.148Z,12.60
2019-05-05T19:39:14.976Z,12.20
2019-05-05T19:41:44.310Z,12.20
2019-05-05T19:44:14.690Z,12.50
2019-05-05T19:46:51.143Z,12.40
2019-05-05T19:49:24.193Z,12.30
2019-05-05T19:52:05.854Z,12.60
2019-05-05T19:54:36.354Z,12.40
2019-05-05T19:57:05.484Z,12.60
2019-05-05T19:59:35.827Z,12.60
2019-05-05T20:02:05.270Z,12.70
2019-05-05T20:04:53.732Z,12.50
2019-05-05T20:07:24.824Z,12.50
2019-05-05T20:09:54.397Z,12.00
2019-05-05T20:12:23.699Z,12.10
2019-05-05T20:14:54.270Z,12.10
2019-05-05T20:17:36.623Z,11.70
2019-05-05T20:20:09.090Z,12.00
2019-05-05T20:22:39.075Z,11.50
2019-05-05T20:25:10.979Z,11.70
2019-05-05T20:27:39.831Z,11.40
2019-05-05T20:30:08.706Z,11.50
2019-05-05T20:32:41.962Z,11.50
2019-05-05T20:35:24.016Z,11.50
2019-05-05T20:37:57.073Z,11.50
2019-05-05T20:40:29.885Z,11.50
2019-05-05T20:42:58.868Z,11.80
2019-05-05T20:45:29.206Z,11.60
2019-05-05T20:47:57.995Z,11.40
2019-05-05T20:50:26.694Z,11.40
2019-05-05T20:52:55.413Z,11.20
2019-05-05T20:55:25.909Z,11.40
2019-05-05T20:57:54.663Z,11.10
2019-05-05T21:00:24.766Z,11.10
2019-05-05T21:02:53.911Z,11.40
2019-05-05T21:05:24.175Z,11.10
2019-05-05T21:07:53.106Z,11.10
2019-05-05T21:10:23.960Z,11.30
2019-05-05T21:12:54.369Z,11.30
2019-05-05T21:15:24.647Z,11.20
2019-05-05T21:17:54.157Z,11.10
2019-05-05T21:20:24.113Z,11.20
2019-05-05T21:23:00.414Z,11.00
2019-05-05T21:25:33.908Z,11.40
2019-05-05T21:28:03.753Z,11.30
2019-05-05T21:30:33.760Z,10.90
2019-05-05T21:33:04.421Z,11.00
2019-05-05T21:35:34.860Z,10.90
2019-05-05T21:38:04.711Z,10.90
2019-05-05T21:40:34.626Z,11.10
2019-05-05T21:43:05.012Z,10.90
2019-05-05T21:45:34.737Z,10.90
2019-05-05T21:48:04.457Z,10.90
2019-05-05T21:50:34.855Z,10.90
2019-05-05T21:53:05.119Z,10.80
2019-05-05T21:55:38.319Z,10.80
2019-05-05T21:58:13.496Z,10.90
2019-05-05T22:00:49.349Z,10.90
2019-05-05T22:03:25.967Z,10.90
2019-05-05T22:05:56.862Z,10.80
2019-05-05T22:08:25.664Z,11.00
2019-05-05T22:10:54.443Z,10.90
2019-05-05T22:13:23.385Z,10.80
2019-05-05T22:15:54.438Z,11.00
2019-05-05T22:18:22.709Z,10.80
2019-05-05T22:20:54.657Z,11.00
2019-05-05T22:23:23.711Z,11.00
2019-05-05T22:25:54.368Z,10.90
2019-05-05T22:28:24.274Z,11.00
2019-05-05T22:30:55.333Z,11.40
2019-05-05T22:33:24.682Z,11.20
2019-05-05T22:35:54.838Z,11.20
2019-05-05T22:38:24.550Z,11.20
2019-05-05T22:40:54.568Z,11.40
2019-05-05T22:43:23.874Z,11.30
2019-05-05T22:45:54.164Z,11.50
2019-05-05T22:48:23.947Z,11.40
2019-05-05T22:50:54.472Z,11.70
2019-05-05T22:53:23.929Z,11.60
2019-05-05T22:55:52.999Z,11.20
2019-05-05T22:58:23.876Z,11.50
2019-05-05T23:00:54.682Z,11.30
2019-05-05T23:03:35.956Z,11.50
2019-05-05T23:06:06.199Z,11.30
2019-05-05T23:08:35.217Z,11.40
2019-05-05T23:11:04.193Z,11.10
2019-05-05T23:13:33.750Z,11.20
2019-05-05T23:16:04.195Z,10.90
2019-05-05T23:18:34.794Z,10.90
2019-05-05T23:21:15.870Z,10.80
2019-05-05T23:23:51.904Z,11.00
2019-05-05T23:26:30.875Z,10.80
2019-05-05T23:28:59.585Z,11.00
2019-05-05T23:31:28.276Z,10.70
2019-05-05T23:33:56.958Z,10.70
2019-05-05T23:36:25.660Z,10.40
2019-05-05T23:38:54.904Z,10.70
2019-05-05T23:41:24.031Z,10.50
2019-05-05T23:43:54.439Z,10.50
2019-05-05T23:46:24.258Z,10.50
2019-05-05T23:48:53.718Z,10.70
2019-05-05T23:51:24.210Z,10.60
2019-05-05T23:53:55.064Z,10.60
2019-05-05T23:56:24.071Z,10.60
2019-05-05T23:58:54.889Z,10.30
